createdAt,value
2022-12-17T00:01:08.466Z,14.70
2022-12-17T00:03:25.640Z,14.25
2022-12-17T00:05:42.772Z,13.48
2022-12-17T00:08:00.093Z,13.32
2022-12-17T00:10:17.159Z,13.27
2022-12-17T00:12:34.452Z,13.48
2022-12-17T00:14:51.490Z,13.25
2022-12-17T00:17:09.073Z,14.43
2022-12-17T00:19:26.868Z,13.88
2022-12-17T00:21:44.203Z,14.98
2022-12-17T00:24:01.800Z,14.18
2022-12-17T00:26:18.877Z,13.73
2022-12-17T00:28:35.842Z,13.90
2022-12-17T00:30:54.138Z,14.88
2022-12-17T00:33:11.043Z,14.13
2022-12-17T00:35:28.087Z,14.07
2022-12-17T00:37:45.392Z,14.82
2022-12-17T00:40:02.426Z,13.90
2022-12-17T00:42:20.529Z,13.50
2022-12-17T00:44:37.498Z,13.35
2022-12-17T00:46:54.549Z,13.90
2022-12-17T00:49:13.050Z,14.35
2022-12-17T00:51:31.350Z,14.50
2022-12-17T00:53:49.295Z,15.35
2022-12-17T00:56:06.239Z,14.20
2022-12-17T00:58:23.198Z,14.05
2022-12-17T01:00:40.572Z,13.95
2022-12-17T01:02:57.738Z,13.85
2022-12-17T01:05:15.062Z,13.02
2022-12-17T01:07:32.102Z,14.88
2022-12-17T01:09:48.997Z,15.20
2022-12-17T01:12:07.042Z,14.23
2022-12-17T01:14:24.295Z,15.15
2022-12-17T01:16:41.251Z,15.68
2022-12-17T01:18:58.342Z,14.73
2022-12-17T01:21:15.315Z,14.88
2022-12-17T01:23:32.337Z,15.57
2022-12-17T01:25:49.588Z,15.65
2022-12-17T01:28:06.829Z,15.43
2022-12-17T01:30:23.838Z,15.90
2022-12-17T01:32:40.825Z,15.43
2022-12-17T01:34:58.851Z,16.25
2022-12-17T01:37:16.059Z,15.45
2022-12-17T01:39:34.251Z,16.20
2022-12-17T01:41:51.308Z,16.02
2022-12-17T01:44:08.337Z,14.85
2022-12-17T01:46:25.306Z,15.15
2022-12-17T01:48:43.571Z,14.18
2022-12-17T01:51:00.833Z,15.85
2022-12-17T01:53:18.859Z,14.00
2022-12-17T01:55:36.135Z,14.75
2022-12-17T01:57:53.160Z,14.68
2022-12-17T02:00:10.268Z,15.27
2022-12-17T02:02:27.411Z,14.27
2022-12-17T02:04:44.702Z,15.70
2022-12-17T02:07:01.767Z,15.27
2022-12-17T02:09:19.102Z,15.48
2022-12-17T02:11:36.316Z,14.55
2022-12-17T02:13:53.350Z,15.00
2022-12-17T02:16:10.265Z,15.07
2022-12-17T02:18:27.341Z,15.38
2022-12-17T02:20:44.320Z,15.10
2022-12-17T02:23:01.541Z,15.88
2022-12-17T02:25:18.568Z,14.75
2022-12-17T02:27:35.803Z,16.00
2022-12-17T02:29:52.712Z,15.10
2022-12-17T02:32:09.599Z,14.82
2022-12-17T02:34:26.533Z,15.95
2022-12-17T02:36:43.567Z,14.95
2022-12-17T02:39:00.590Z,14.85
2022-12-17T02:41:17.890Z,14.98
2022-12-17T02:43:35.128Z,14.32
2022-12-17T02:45:52.572Z,13.85
2022-12-17T02:48:09.810Z,12.65
2022-12-17T02:50:26.772Z,13.85
2022-12-17T02:52:44.024Z,14.40
2022-12-17T02:55:01.346Z,13.63
2022-12-17T02:57:18.315Z,14.40
2022-12-17T02:59:35.567Z,14.88
2022-12-17T03:01:52.638Z,14.07
2022-12-17T03:04:10.639Z,14.00
2022-12-17T03:06:27.542Z,13.35
2022-12-17T03:08:44.854Z,13.20
2022-12-17T03:11:02.063Z,13.68
2022-12-17T03:13:19.016Z,13.48
2022-12-17T03:15:36.018Z,12.85
2022-12-17T03:17:52.955Z,12.80
2022-12-17T03:20:10.180Z,12.20
2022-12-17T03:22:28.214Z,13.20
2022-12-17T03:24:45.211Z,13.00
2022-12-17T03:27:03.107Z,12.82
2022-12-17T03:29:20.051Z,12.95
2022-12-17T03:31:37.169Z,12.77
2022-12-17T03:33:54.484Z,12.98
2022-12-17T03:36:11.423Z,13.30
2022-12-17T03:38:28.497Z,13.88
2022-12-17T03:40:45.452Z,12.60
2022-12-17T03:43:02.473Z,12.70
2022-12-17T03:45:19.584Z,12.90
2022-12-17T03:47:36.559Z,12.15
2022-12-17T03:49:53.535Z,12.77
2022-12-17T03:52:10.513Z,11.45
2022-12-17T03:54:27.493Z,11.13
2022-12-17T03:56:44.474Z,11.27
2022-12-17T03:59:01.760Z,10.93
2022-12-17T04:01:18.886Z,10.95
2022-12-17T04:03:36.306Z,10.80
2022-12-17T04:05:53.567Z,10.57
2022-12-17T04:08:10.629Z,10.93
2022-12-17T04:10:28.715Z,10.30
2022-12-17T04:12:47.094Z,10.27
2022-12-17T04:15:04.102Z,10.15
2022-12-17T04:17:21.168Z,10.90
2022-12-17T04:19:39.424Z,10.35
2022-12-17T04:21:56.650Z,10.50
2022-12-17T04:24:13.856Z,9.60
2022-12-17T04:26:31.185Z,9.57
2022-12-17T04:28:48.431Z,9.85
2022-12-17T04:31:05.438Z,10.13
2022-12-17T04:33:22.481Z,10.00
2022-12-17T04:35:39.554Z,10.60
2022-12-17T04:37:56.819Z,9.68
2022-12-17T04:40:14.085Z,9.35
2022-12-17T04:42:31.358Z,9.32
2022-12-17T04:44:48.664Z,9.13
2022-12-17T04:47:07.004Z,9.50
2022-12-17T04:49:24.329Z,9.00
2022-12-17T04:51:42.308Z,9.32
2022-12-17T04:53:59.611Z,9.35
2022-12-17T04:56:16.496Z,8.68
2022-12-17T04:58:33.588Z,9.15
2022-12-17T05:00:50.833Z,9.38
2022-12-17T05:03:07.831Z,9.15
2022-12-17T05:05:25.189Z,8.65
2022-12-17T05:07:42.564Z,8.73
2022-12-17T05:09:59.878Z,8.85
2022-12-17T05:12:17.213Z,8.30
2022-12-17T05:14:34.144Z,8.60
2022-12-17T05:16:51.189Z,8.50
2022-12-17T05:19:08.171Z,8.45
2022-12-17T05:21:28.108Z,9.23
2022-12-17T05:23:50.146Z,8.90
2022-12-17T05:26:07.388Z,8.18
2022-12-17T05:28:24.419Z,8.32
2022-12-17T05:30:41.451Z,9.07
2022-12-17T05:32:59.707Z,9.00
2022-12-17T05:35:16.977Z,9.02
2022-12-17T05:37:33.968Z,9.20
2022-12-17T05:39:52.233Z,8.63
2022-12-17T05:42:09.201Z,8.65
2022-12-17T05:44:26.250Z,8.35
2022-12-17T05:46:43.332Z,8.52
2022-12-17T05:49:00.263Z,8.57
2022-12-17T05:51:17.198Z,8.63
2022-12-17T05:53:34.801Z,8.43
2022-12-17T05:55:53.372Z,8.80
2022-12-17T05:58:11.197Z,8.38
2022-12-17T06:00:29.267Z,8.52
2022-12-17T06:02:46.441Z,8.23
2022-12-17T06:05:03.533Z,8.40
2022-12-17T06:07:20.506Z,8.60
2022-12-17T06:09:38.807Z,8.25
2022-12-17T06:12:01.001Z,8.45
2022-12-17T06:14:19.748Z,8.65
2022-12-17T06:16:37.118Z,7.63
2022-12-17T06:18:54.416Z,8.30
2022-12-17T06:21:12.490Z,8.90
2022-12-17T06:23:29.521Z,8.32
2022-12-17T06:25:46.597Z,8.27
2022-12-17T06:28:03.912Z,9.07
2022-12-17T06:30:20.971Z,8.23
2022-12-17T06:32:38.024Z,8.48
2022-12-17T06:34:55.407Z,8.82
2022-12-17T06:37:12.321Z,8.55
2022-12-17T06:39:30.567Z,8.10
2022-12-17T06:41:48.875Z,8.25
2022-12-17T06:44:06.055Z,7.68
2022-12-17T06:46:23.168Z,8.02
2022-12-17T06:48:40.295Z,8.35
2022-12-17T06:50:57.597Z,8.45
2022-12-17T06:53:14.673Z,7.82
2022-12-17T06:55:32.586Z,7.47
2022-12-17T06:57:50.640Z,7.82
2022-12-17T07:00:07.732Z,8.70
2022-12-17T07:02:25.229Z,7.93
2022-12-17T07:04:42.351Z,7.72
2022-12-17T07:07:00.459Z,7.35
2022-12-17T07:09:17.549Z,8.23
2022-12-17T07:11:34.712Z,7.57
2022-12-17T07:13:52.059Z,8.05
2022-12-17T07:16:09.189Z,7.55
2022-12-17T07:18:27.322Z,7.55
2022-12-17T07:20:44.676Z,8.32
2022-12-17T07:23:01.902Z,7.97
2022-12-17T07:25:19.741Z,7.57
2022-12-17T07:27:37.110Z,8.10
2022-12-17T07:29:54.463Z,8.50
2022-12-17T07:32:11.411Z,8.05
2022-12-17T07:34:28.661Z,7.93
2022-12-17T07:36:45.588Z,7.53
2022-12-17T07:39:02.715Z,8.02
2022-12-17T07:41:20.100Z,8.02
2022-12-17T07:43:38.386Z,8.68
2022-12-17T07:45:56.086Z,8.20
2022-12-17T07:48:13.074Z,7.65
2022-12-17T07:50:30.110Z,8.40
2022-12-17T07:52:47.176Z,8.57
2022-12-17T07:55:04.172Z,9.75
2022-12-17T07:57:22.196Z,11.07
2022-12-17T07:59:39.236Z,9.70
2022-12-17T08:01:56.643Z,10.18
2022-12-17T08:04:13.906Z,11.05
2022-12-17T08:06:31.219Z,9.57
2022-12-17T08:08:48.267Z,9.50
2022-12-17T08:11:05.277Z,9.57
2022-12-17T08:13:22.308Z,7.95
2022-12-17T08:15:39.385Z,8.90
2022-12-17T08:17:56.278Z,7.88
2022-12-17T08:20:13.307Z,8.80
2022-12-17T08:22:31.593Z,10.85
2022-12-17T08:24:48.894Z,12.50
2022-12-17T08:27:06.124Z,12.45
2022-12-17T08:29:23.367Z,12.43
2022-12-17T08:31:40.302Z,9.40
2022-12-17T08:33:57.233Z,9.23
2022-12-17T08:36:14.258Z,9.25
2022-12-17T08:38:31.116Z,9.07
2022-12-17T08:40:48.162Z,9.77
2022-12-17T08:43:06.472Z,9.98
2022-12-17T08:45:23.542Z,13.57
2022-12-17T08:47:40.554Z,13.48
2022-12-17T08:49:57.824Z,11.07
2022-12-17T08:52:14.764Z,10.13
2022-12-17T08:54:31.762Z,10.57
2022-12-17T08:56:49.504Z,8.30
2022-12-17T08:59:07.594Z,10.55
2022-12-17T09:01:25.116Z,11.07
2022-12-17T09:03:42.271Z,11.65
2022-12-17T09:05:59.669Z,10.95
2022-12-17T09:08:16.907Z,11.52
2022-12-17T09:10:34.967Z,10.55
2022-12-17T09:12:52.167Z,11.57
2022-12-17T09:15:09.183Z,11.25
2022-12-17T09:17:27.109Z,10.80
2022-12-17T09:19:44.142Z,10.68
2022-12-17T09:22:01.589Z,10.88
2022-12-17T09:24:18.503Z,10.63
2022-12-17T09:26:35.733Z,11.02
2022-12-17T09:28:52.795Z,10.90
2022-12-17T09:31:10.259Z,11.70
2022-12-17T09:33:27.288Z,12.20
2022-12-17T09:35:44.280Z,11.63
2022-12-17T09:38:01.383Z,12.10
2022-12-17T09:40:18.316Z,11.55
2022-12-17T09:42:35.276Z,12.48
2022-12-17T09:44:52.512Z,12.27
2022-12-17T09:47:09.609Z,13.00
2022-12-17T09:49:26.589Z,13.38
2022-12-17T09:51:43.846Z,11.45
2022-12-17T09:54:00.709Z,12.68
2022-12-17T09:56:17.941Z,12.38
2022-12-17T09:58:34.941Z,12.32
2022-12-17T10:00:54.988Z,11.55
2022-12-17T10:03:16.241Z,12.65
2022-12-17T10:05:33.350Z,11.90
2022-12-17T10:07:50.273Z,12.75
2022-12-17T10:10:07.342Z,11.77
2022-12-17T10:12:24.455Z,12.73
2022-12-17T10:14:41.848Z,12.50
2022-12-17T10:16:58.951Z,13.35
2022-12-17T10:19:15.911Z,12.35
2022-12-17T10:21:33.203Z,12.15
2022-12-17T10:23:50.133Z,12.02
2022-12-17T10:26:07.210Z,12.30
2022-12-17T10:28:24.621Z,13.23
2022-12-17T10:30:41.578Z,12.88
2022-12-17T10:32:58.968Z,12.05
2022-12-17T10:35:16.077Z,12.35
2022-12-17T10:37:33.371Z,12.68
2022-12-17T10:39:50.635Z,13.15
2022-12-17T10:42:07.786Z,11.65
2022-12-17T10:44:25.099Z,12.57
2022-12-17T10:46:42.242Z,12.40
2022-12-17T10:48:59.329Z,14.63
2022-12-17T10:51:16.229Z,19.13
2022-12-17T10:53:33.731Z,15.63
2022-12-17T10:55:50.925Z,14.07
2022-12-17T10:58:08.228Z,13.77
2022-12-17T11:00:25.201Z,12.35
2022-12-17T11:02:42.219Z,13.88
2022-12-17T11:04:59.276Z,14.38
2022-12-17T11:07:16.504Z,13.43
2022-12-17T11:09:33.471Z,13.65
2022-12-17T11:11:50.827Z,13.30
2022-12-17T11:14:07.749Z,12.82
2022-12-17T11:16:25.200Z,13.60
2022-12-17T11:18:42.129Z,12.00
2022-12-17T11:20:59.472Z,13.60
2022-12-17T11:23:16.463Z,12.68
2022-12-17T11:25:33.510Z,12.57
2022-12-17T11:27:50.840Z,13.32
2022-12-17T11:30:07.898Z,13.98
2022-12-17T11:32:24.963Z,13.30
2022-12-17T11:34:42.037Z,13.10
2022-12-17T11:36:59.123Z,12.75
2022-12-17T11:39:16.191Z,14.07
2022-12-17T11:41:33.154Z,13.07
2022-12-17T11:43:50.077Z,12.55
2022-12-17T11:46:07.464Z,12.93
2022-12-17T11:48:24.481Z,12.90
2022-12-17T11:50:41.763Z,13.07
2022-12-17T11:52:59.347Z,12.77
2022-12-17T11:55:16.650Z,12.40
2022-12-17T11:57:33.982Z,12.80
2022-12-17T11:59:55.091Z,13.63
2022-12-17T12:02:15.524Z,13.30
2022-12-17T12:04:32.619Z,12.10
2022-12-17T12:06:50.510Z,11.90
2022-12-17T12:09:07.414Z,12.20
2022-12-17T12:11:29.733Z,13.07
2022-12-17T12:13:48.524Z,12.00
2022-12-17T12:16:05.919Z,12.63
2022-12-17T12:18:22.958Z,11.88
2022-12-17T12:20:39.873Z,12.15
2022-12-17T12:22:57.143Z,11.82
2022-12-17T12:25:14.081Z,10.93
2022-12-17T12:27:31.031Z,11.55
2022-12-17T12:29:48.159Z,11.15
2022-12-17T12:32:05.154Z,11.00
2022-12-17T12:34:23.071Z,9.48
2022-12-17T12:36:40.367Z,10.25
2022-12-17T12:38:57.287Z,10.20
2022-12-17T12:41:14.464Z,10.82
2022-12-17T12:43:31.761Z,10.95
2022-12-17T12:45:49.179Z,9.80
2022-12-17T12:48:06.468Z,10.10
2022-12-17T12:50:23.732Z,10.90
2022-12-17T12:52:40.649Z,10.73
2022-12-17T12:54:57.601Z,11.27
2022-12-17T12:57:14.491Z,10.30
2022-12-17T12:59:31.576Z,10.23
2022-12-17T13:01:48.745Z,10.85
2022-12-17T13:04:06.179Z,11.52
2022-12-17T13:06:23.489Z,10.00
2022-12-17T13:08:41.838Z,10.25
2022-12-17T13:10:58.776Z,9.93
2022-12-17T13:13:15.801Z,10.27
2022-12-17T13:15:33.444Z,10.23
2022-12-17T13:17:50.678Z,10.40
2022-12-17T13:20:07.731Z,9.80
2022-12-17T13:22:24.829Z,9.75
2022-12-17T13:24:41.841Z,9.70
2022-12-17T13:26:59.781Z,9.85
2022-12-17T13:29:17.100Z,10.00
2022-12-17T13:31:34.097Z,9.73
2022-12-17T13:33:51.074Z,9.63
2022-12-17T13:36:08.012Z,9.50
2022-12-17T13:38:24.991Z,9.32
2022-12-17T13:40:42.254Z,9.13
2022-12-17T13:42:59.259Z,10.13
2022-12-17T13:45:16.299Z,10.18
2022-12-17T13:47:34.501Z,9.32
2022-12-17T13:50:24.594Z,9.35
2022-12-17T13:52:28.771Z,10.25
2022-12-17T13:54:45.734Z,9.82
2022-12-17T13:57:02.946Z,9.68
2022-12-17T13:59:19.833Z,9.90
2022-12-17T14:01:36.999Z,9.32
2022-12-17T14:04:09.455Z,9.60
2022-12-17T14:06:27.801Z,9.30
2022-12-17T14:08:44.848Z,9.52
2022-12-17T14:11:06.581Z,10.25
2022-12-17T14:13:24.057Z,9.40
2022-12-17T14:15:40.985Z,8.60
2022-12-17T14:17:57.980Z,9.25
2022-12-17T14:20:14.878Z,9.23
2022-12-17T14:22:31.863Z,9.60
2022-12-17T14:24:49.146Z,9.77
2022-12-17T14:27:06.420Z,9.27
2022-12-17T14:29:23.651Z,9.95
2022-12-17T14:31:40.791Z,9.52
2022-12-17T14:33:57.874Z,9.02
2022-12-17T14:36:14.792Z,8.80
2022-12-17T14:38:38.388Z,9.68
2022-12-17T14:40:56.337Z,9.18
2022-12-17T14:43:13.264Z,9.40
2022-12-17T14:45:30.233Z,9.32
2022-12-17T14:47:48.359Z,8.27
2022-12-17T14:50:05.706Z,9.13
2022-12-17T14:52:22.936Z,9.23
2022-12-17T14:54:39.848Z,9.23
2022-12-17T14:56:56.898Z,8.63
2022-12-17T14:59:14.302Z,8.00
2022-12-17T15:01:31.317Z,9.65
2022-12-17T15:03:48.483Z,9.25
2022-12-17T15:06:05.471Z,9.40
2022-12-17T15:08:22.819Z,9.20
2022-12-17T15:10:40.056Z,10.75
2022-12-17T15:12:59.470Z,10.40
2022-12-17T15:15:16.583Z,10.32
2022-12-17T15:17:34.428Z,9.73
2022-12-17T15:19:56.208Z,9.55
2022-12-17T15:22:13.494Z,9.95
2022-12-17T15:24:30.483Z,10.27
2022-12-17T15:26:47.441Z,10.48
2022-12-17T15:29:04.694Z,9.55
2022-12-17T15:31:25.522Z,9.70
2022-12-17T15:33:44.888Z,8.77
2022-12-17T15:36:02.207Z,9.15
2022-12-17T15:38:19.202Z,9.50
2022-12-17T15:40:36.223Z,8.73
2022-12-17T15:42:53.214Z,8.63
2022-12-17T15:45:10.549Z,8.77
2022-12-17T15:47:27.984Z,7.85
2022-12-17T15:49:45.315Z,8.80
2022-12-17T15:52:02.551Z,7.55
2022-12-17T15:54:19.507Z,8.27
2022-12-17T15:56:36.772Z,9.05
2022-12-17T15:58:53.820Z,7.93
2022-12-17T16:01:10.793Z,8.18
2022-12-17T16:03:27.906Z,7.65
2022-12-17T16:05:44.981Z,7.85
2022-12-17T16:08:02.023Z,10.38
2022-12-17T16:10:20.096Z,9.75
2022-12-17T16:12:37.087Z,9.10
2022-12-17T16:14:54.138Z,8.57
2022-12-17T16:17:11.380Z,8.85
2022-12-17T16:19:28.623Z,9.10
2022-12-17T16:21:47.141Z,9.77
2022-12-17T16:24:04.274Z,8.82
2022-12-17T16:26:21.320Z,9.00
2022-12-17T16:28:38.934Z,8.55
2022-12-17T16:30:56.233Z,8.32
2022-12-17T16:33:13.364Z,8.82
2022-12-17T16:35:30.451Z,8.32
2022-12-17T16:37:47.447Z,8.27
2022-12-17T16:40:05.543Z,9.10
2022-12-17T16:42:22.854Z,8.52
2022-12-17T16:44:39.897Z,8.70
2022-12-17T16:46:59.980Z,8.10
2022-12-17T16:49:17.178Z,8.80
2022-12-17T16:51:34.490Z,8.27
2022-12-17T16:53:51.515Z,8.65
2022-12-17T16:56:09.106Z,8.23
2022-12-17T16:58:26.111Z,8.13
2022-12-17T17:00:43.404Z,8.23
2022-12-17T17:03:00.443Z,8.68
2022-12-17T17:05:17.603Z,8.23
2022-12-17T17:07:34.940Z,9.60
2022-12-17T17:09:51.967Z,8.38
2022-12-17T17:12:09.303Z,8.90
2022-12-17T17:14:27.048Z,8.55
2022-12-17T17:16:44.097Z,9.25
2022-12-17T17:19:02.397Z,9.80
2022-12-17T17:21:19.278Z,9.45
2022-12-17T17:23:36.338Z,9.57
2022-12-17T17:25:58.270Z,9.85
2022-12-17T17:28:16.058Z,9.30
2022-12-17T17:30:32.977Z,9.57
2022-12-17T17:32:49.972Z,10.95
2022-12-17T17:35:07.115Z,10.32
2022-12-17T17:37:24.112Z,10.38
2022-12-17T17:39:41.914Z,10.55
2022-12-17T17:41:58.981Z,10.70
2022-12-17T17:44:17.318Z,11.68
2022-12-17T17:46:34.297Z,12.00
2022-12-17T17:48:56.622Z,11.95
2022-12-17T17:51:14.212Z,11.88
2022-12-17T17:53:31.189Z,12.65
2022-12-17T17:55:48.464Z,12.63
2022-12-17T17:58:05.400Z,13.13
2022-12-17T18:00:22.764Z,13.30
2022-12-17T18:02:40.188Z,14.70
2022-12-17T18:04:57.608Z,14.52
2022-12-17T18:07:30.054Z,14.68
2022-12-17T18:09:47.052Z,15.15
2022-12-17T18:12:04.342Z,15.40
2022-12-17T18:14:21.397Z,16.85
2022-12-17T18:16:38.484Z,17.35
2022-12-17T18:18:55.590Z,16.33
2022-12-17T18:21:12.696Z,15.95
2022-12-17T18:23:30.659Z,15.00
2022-12-17T18:25:47.561Z,17.27
2022-12-17T18:28:04.610Z,17.13
2022-12-17T18:30:21.677Z,14.65
2022-12-17T18:32:39.263Z,12.82
2022-12-17T18:34:56.364Z,13.23
2022-12-17T18:37:14.729Z,12.52
2022-12-17T18:39:31.706Z,13.18
2022-12-17T18:41:48.659Z,13.95
2022-12-17T18:44:05.692Z,16.48
2022-12-17T18:46:23.570Z,16.48
2022-12-17T18:48:40.905Z,16.10
2022-12-17T18:51:02.532Z,15.32
2022-12-17T18:53:20.228Z,13.32
2022-12-17T18:55:37.296Z,13.80
2022-12-17T18:57:55.250Z,12.18
2022-12-17T19:00:12.171Z,12.45
2022-12-17T19:02:29.511Z,12.80
2022-12-17T19:04:46.925Z,12.98
2022-12-17T19:07:04.878Z,13.95
2022-12-17T19:09:21.866Z,14.52
2022-12-17T19:11:43.412Z,15.40
2022-12-17T19:14:00.976Z,16.77
2022-12-17T19:16:17.962Z,17.00
2022-12-17T19:18:35.485Z,15.60
2022-12-17T19:20:52.829Z,15.25
2022-12-17T19:23:10.096Z,14.60
2022-12-17T19:25:27.089Z,13.13
2022-12-17T19:27:44.504Z,12.77
2022-12-17T19:30:01.574Z,14.43
2022-12-17T19:32:18.898Z,13.50
2022-12-17T19:34:35.837Z,12.57
2022-12-17T19:36:52.887Z,12.23
2022-12-17T19:39:10.236Z,12.30
2022-12-17T19:41:27.296Z,12.15
2022-12-17T19:43:44.533Z,13.43
2022-12-17T19:46:01.958Z,14.20
2022-12-17T19:48:18.860Z,14.48
2022-12-17T19:50:35.846Z,14.70
2022-12-17T19:52:53.246Z,13.35
2022-12-17T19:55:10.520Z,14.00
2022-12-17T19:57:27.465Z,13.45
2022-12-17T19:59:44.704Z,13.90
2022-12-17T20:02:02.035Z,14.27
2022-12-17T20:04:19.296Z,13.70
2022-12-17T20:06:36.305Z,13.27
2022-12-17T20:08:54.321Z,12.25
2022-12-17T20:11:11.247Z,13.07
2022-12-17T20:13:28.316Z,12.45
2022-12-17T20:15:45.386Z,15.70
2022-12-17T20:18:02.260Z,15.25
2022-12-17T20:20:19.359Z,14.00
2022-12-17T20:22:36.337Z,13.82
2022-12-17T20:24:53.328Z,13.60
2022-12-17T20:27:10.316Z,13.63
2022-12-17T20:29:27.361Z,14.40
2022-12-17T20:31:48.118Z,14.77
2022-12-17T20:34:06.949Z,13.35
2022-12-17T20:36:24.195Z,12.52
2022-12-17T20:38:41.819Z,11.68
2022-12-17T20:40:59.081Z,11.90
2022-12-17T20:43:16.273Z,11.85
2022-12-17T20:45:33.584Z,12.52
2022-12-17T20:47:50.704Z,12.63
2022-12-17T20:50:07.681Z,12.52
2022-12-17T20:52:24.921Z,13.18
2022-12-17T20:54:41.926Z,12.55
2022-12-17T20:56:58.891Z,11.98
2022-12-17T20:59:15.950Z,12.30
2022-12-17T21:01:33.315Z,12.95
2022-12-17T21:03:51.143Z,12.48
2022-12-17T21:06:08.274Z,11.98
2022-12-17T21:08:25.349Z,11.63
2022-12-17T21:10:42.768Z,12.77
2022-12-17T21:13:00.088Z,14.18
2022-12-17T21:15:17.419Z,12.57
2022-12-17T21:17:34.312Z,11.85
2022-12-17T21:19:51.537Z,12.05
2022-12-17T21:22:09.953Z,12.32
2022-12-17T21:24:28.264Z,12.13
2022-12-17T21:26:45.327Z,14.05
2022-12-17T21:29:03.570Z,12.32
2022-12-17T21:31:20.877Z,12.85
2022-12-17T21:33:38.007Z,13.52
2022-12-17T21:35:56.549Z,11.57
2022-12-17T21:38:13.385Z,11.43
2022-12-17T21:40:30.619Z,12.15
2022-12-17T21:42:48.550Z,12.65
2022-12-17T21:45:06.787Z,11.75
2022-12-17T21:47:24.046Z,12.15
2022-12-17T21:49:40.964Z,11.75
2022-12-17T21:51:58.047Z,10.93
2022-12-17T21:54:19.256Z,11.77
2022-12-17T21:56:36.466Z,10.40
2022-12-17T21:58:53.646Z,11.18
2022-12-17T22:01:18.663Z,11.23
2022-12-17T22:03:36.740Z,10.70
2022-12-17T22:05:53.786Z,10.75
2022-12-17T22:08:12.128Z,10.43
2022-12-17T22:10:41.999Z,10.65
2022-12-17T22:13:06.601Z,10.57
2022-12-17T22:15:30.714Z,11.90
2022-12-17T22:17:55.240Z,11.57
2022-12-17T22:20:13.429Z,10.55
2022-12-17T22:22:30.677Z,10.23
2022-12-17T22:24:47.772Z,10.77
2022-12-17T22:27:05.143Z,11.52
2022-12-17T22:29:27.023Z,10.43
2022-12-17T22:31:44.046Z,10.82
2022-12-17T22:35:18.095Z,11.52
2022-12-17T22:39:18.285Z,10.43
2022-12-17T22:41:12.086Z,9.73
2022-12-17T22:44:34.916Z,11.15
2022-12-17T22:44:52.187Z,10.05
2022-12-17T22:47:06.760Z,10.23
2022-12-17T22:49:23.825Z,11.48
2022-12-17T22:51:40.858Z,10.57
2022-12-17T22:54:00.107Z,10.55
2022-12-17T22:56:26.463Z,9.98
2022-12-17T22:58:54.473Z,9.45
2022-12-17T23:01:12.522Z,10.20
2022-12-17T23:03:29.919Z,10.10
2022-12-17T23:05:46.992Z,9.88
2022-12-17T23:08:03.980Z,9.63
2022-12-17T23:10:20.898Z,11.02
2022-12-17T23:12:38.177Z,10.00
2022-12-17T23:14:55.414Z,9.77
2022-12-17T23:17:12.386Z,9.50
2022-12-17T23:19:29.443Z,10.77
2022-12-17T23:21:46.754Z,11.05
2022-12-17T23:24:04.809Z,10.52
2022-12-17T23:26:22.089Z,10.77
2022-12-17T23:28:39.123Z,10.07
2022-12-17T23:30:56.172Z,9.90
2022-12-17T23:33:13.347Z,10.88
2022-12-17T23:35:31.348Z,10.82
2022-12-17T23:37:48.311Z,10.18
2022-12-17T23:40:05.354Z,10.75
2022-12-17T23:42:22.664Z,11.00
2022-12-17T23:44:40.002Z,10.48
2022-12-17T23:46:57.410Z,9.48
2022-12-17T23:49:14.563Z,10.95
2022-12-17T23:51:31.835Z,10.68
2022-12-17T23:53:49.191Z,9.73
2022-12-17T23:56:06.242Z,10.38
2022-12-17T23:58:23.523Z,9.95
